sensor_id;sensor_type;location;lat;lon;timestamp;P1;durP1;ratioP1;P2;durP2;ratioP2
17079;SDS011;8655;57.106;-2.088;2023-01-30T00:01:24;1.70;;;0.97;;
17079;SDS011;8655;57.106;-2.088;2023-01-30T00:03:51;2.20;;;1.20;;
17079;SDS011;8655;57.106;-2.088;2023-01-30T00:06:17;1.77;;;1.00;;
17079;SDS011;8655;57.106;-2.088;2023-01-30T00:08:44;2.13;;;1.20;;
17079;SDS011;8655;57.106;-2.088;2023-01-30T00:11:11;2.63;;;1.07;;
17079;SDS011;8655;57.106;-2.088;2023-01-30T00:13:39;2.10;;;0.97;;
17079;SDS011;8655;57.106;-2.088;2023-01-30T00:16:05;2.67;;;1.10;;
17079;SDS011;8655;57.106;-2.088;2023-01-30T00:18:33;2.00;;;1.10;;
17079;SDS011;8655;57.106;-2.088;2023-01-30T00:21:01;1.67;;;0.90;;
17079;SDS011;8655;57.106;-2.088;2023-01-30T00:23:30;1.63;;;0.97;;
17079;SDS011;8655;57.106;-2.088;2023-01-30T00:25:56;2.37;;;1.13;;
17079;SDS011;8655;57.106;-2.088;2023-01-30T00:28:22;2.40;;;1.10;;
17079;SDS011;8655;57.106;-2.088;2023-01-30T00:30:48;1.33;;;0.90;;
17079;SDS011;8655;57.106;-2.088;2023-01-30T00:33:18;0.87;;;0.70;;
17079;SDS011;8655;57.106;-2.088;2023-01-30T00:35:45;2.07;;;1.00;;
17079;SDS011;8655;57.106;-2.088;2023-01-30T00:38:12;1.97;;;1.20;;
17079;SDS011;8655;57.106;-2.088;2023-01-30T00:40:38;1.93;;;0.90;;
17079;SDS011;8655;57.106;-2.088;2023-01-30T00:43:04;2.47;;;1.20;;
17079;SDS011;8655;57.106;-2.088;2023-01-30T00:45:49;2.23;;;1.10;;
17079;SDS011;8655;57.106;-2.088;2023-01-30T00:48:35;2.40;;;1.10;;
17079;SDS011;8655;57.106;-2.088;2023-01-30T00:51:00;2.57;;;1.00;;
17079;SDS011;8655;57.106;-2.088;2023-01-30T00:53:26;1.50;;;1.07;;
17079;SDS011;8655;57.106;-2.088;2023-01-30T00:55:52;1.80;;;1.00;;
17079;SDS011;8655;57.106;-2.088;2023-01-30T00:58:19;1.63;;;0.90;;
17079;SDS011;8655;57.106;-2.088;2023-01-30T01:00:46;3.03;;;1.13;;
17079;SDS011;8655;57.106;-2.088;2023-01-30T01:03:12;1.70;;;1.00;;
17079;SDS011;8655;57.106;-2.088;2023-01-30T01:05:37;2.07;;;1.20;;
17079;SDS011;8655;57.106;-2.088;2023-01-30T01:08:03;1.87;;;0.90;;
17079;SDS011;8655;57.106;-2.088;2023-01-30T01:10:30;2.27;;;1.00;;
17079;SDS011;8655;57.106;-2.088;2023-01-30T01:12:56;2.40;;;1.00;;
17079;SDS011;8655;57.106;-2.088;2023-01-30T01:15:22;1.83;;;0.90;;
17079;SDS011;8655;57.106;-2.088;2023-01-30T01:17:50;2.57;;;1.30;;
17079;SDS011;8655;57.106;-2.088;2023-01-30T01:20:16;1.57;;;1.00;;
17079;SDS011;8655;57.106;-2.088;2023-01-30T01:22:42;1.40;;;1.00;;
17079;SDS011;8655;57.106;-2.088;2023-01-30T01:25:08;2.43;;;0.90;;
17079;SDS011;8655;57.106;-2.088;2023-01-30T01:27:35;2.00;;;1.13;;
17079;SDS011;8655;57.106;-2.088;2023-01-30T01:30:01;1.30;;;1.00;;
17079;SDS011;8655;57.106;-2.088;2023-01-30T01:32:28;2.53;;;1.10;;
17079;SDS011;8655;57.106;-2.088;2023-01-30T01:34:53;1.43;;;0.87;;
17079;SDS011;8655;57.106;-2.088;2023-01-30T01:37:19;1.30;;;0.90;;
17079;SDS011;8655;57.106;-2.088;2023-01-30T01:39:45;1.30;;;0.90;;
17079;SDS011;8655;57.106;-2.088;2023-01-30T01:42:32;2.87;;;1.13;;
17079;SDS011;8655;57.106;-2.088;2023-01-30T01:45:02;1.70;;;1.10;;
17079;SDS011;8655;57.106;-2.088;2023-01-30T01:47:41;1.10;;;0.90;;
17079;SDS011;8655;57.106;-2.088;2023-01-30T01:50:20;2.57;;;1.07;;
17079;SDS011;8655;57.106;-2.088;2023-01-30T01:52:51;1.53;;;0.80;;
17079;SDS011;8655;57.106;-2.088;2023-01-30T01:55:21;2.07;;;1.10;;
17079;SDS011;8655;57.106;-2.088;2023-01-30T02:00:25;2.07;;;1.00;;
17079;SDS011;8655;57.106;-2.088;2023-01-30T02:03:10;1.63;;;0.90;;
17079;SDS011;8655;57.106;-2.088;2023-01-30T02:05:44;3.17;;;1.20;;
17079;SDS011;8655;57.106;-2.088;2023-01-30T02:08:14;2.07;;;1.20;;
17079;SDS011;8655;57.106;-2.088;2023-01-30T02:10:57;2.13;;;1.20;;
17079;SDS011;8655;57.106;-2.088;2023-01-30T02:13:27;1.30;;;1.00;;
17079;SDS011;8655;57.106;-2.088;2023-01-30T02:15:57;1.40;;;0.83;;
17079;SDS011;8655;57.106;-2.088;2023-01-30T02:18:24;2.47;;;1.10;;
17079;SDS011;8655;57.106;-2.088;2023-01-30T02:21:01;1.93;;;1.10;;
17079;SDS011;8655;57.106;-2.088;2023-01-30T02:24:29;1.63;;;1.00;;
17079;SDS011;8655;57.106;-2.088;2023-01-30T02:46:04;2.67;;;1.30;;
17079;SDS011;8655;57.106;-2.088;2023-01-30T02:48:47;1.93;;;0.90;;
17079;SDS011;8655;57.106;-2.088;2023-01-30T02:51:23;1.37;;;0.80;;
17079;SDS011;8655;57.106;-2.088;2023-01-30T02:53:52;1.43;;;1.03;;
17079;SDS011;8655;57.106;-2.088;2023-01-30T02:56:18;3.43;;;1.30;;
17079;SDS011;8655;57.106;-2.088;2023-01-30T02:58:45;2.70;;;1.20;;
17079;SDS011;8655;57.106;-2.088;2023-01-30T03:14:59;1.73;;;1.10;;
17079;SDS011;8655;57.106;-2.088;2023-01-30T03:17:45;2.13;;;1.10;;
17079;SDS011;8655;57.106;-2.088;2023-01-30T03:20:13;2.43;;;1.20;;
17079;SDS011;8655;57.106;-2.088;2023-01-30T03:22:40;2.93;;;1.30;;
17079;SDS011;8655;57.106;-2.088;2023-01-30T03:25:06;1.93;;;1.10;;
17079;SDS011;8655;57.106;-2.088;2023-01-30T03:27:33;3.40;;;1.43;;
17079;SDS011;8655;57.106;-2.088;2023-01-30T03:29:59;3.93;;;1.37;;
17079;SDS011;8655;57.106;-2.088;2023-01-30T03:32:25;2.10;;;1.10;;
17079;SDS011;8655;57.106;-2.088;2023-01-30T03:34:51;1.50;;;0.80;;
17079;SDS011;8655;57.106;-2.088;2023-01-30T03:37:16;2.27;;;1.10;;
17079;SDS011;8655;57.106;-2.088;2023-01-30T03:39:42;2.37;;;1.07;;
17079;SDS011;8655;57.106;-2.088;2023-01-30T03:42:08;2.20;;;1.27;;
17079;SDS011;8655;57.106;-2.088;2023-01-30T03:44:34;3.20;;;1.23;;
17079;SDS011;8655;57.106;-2.088;2023-01-30T03:46:59;2.37;;;1.20;;
17079;SDS011;8655;57.106;-2.088;2023-01-30T03:49:25;1.93;;;1.13;;
17079;SDS011;8655;57.106;-2.088;2023-01-30T03:51:51;2.13;;;1.10;;
17079;SDS011;8655;57.106;-2.088;2023-01-30T03:54:16;2.23;;;1.10;;
17079;SDS011;8655;57.106;-2.088;2023-01-30T03:56:42;1.70;;;0.90;;
17079;SDS011;8655;57.106;-2.088;2023-01-30T03:59:07;2.03;;;0.90;;
17079;SDS011;8655;57.106;-2.088;2023-01-30T04:01:33;2.13;;;1.13;;
17079;SDS011;8655;57.106;-2.088;2023-01-30T04:03:59;2.37;;;1.13;;
17079;SDS011;8655;57.106;-2.088;2023-01-30T04:06:24;2.40;;;1.07;;
17079;SDS011;8655;57.106;-2.088;2023-01-30T04:08:53;2.73;;;1.20;;
17079;SDS011;8655;57.106;-2.088;2023-01-30T04:11:19;1.70;;;1.13;;
17079;SDS011;8655;57.106;-2.088;2023-01-30T04:13:45;2.00;;;0.90;;
17079;SDS011;8655;57.106;-2.088;2023-01-30T04:16:15;2.10;;;1.37;;
17079;SDS011;8655;57.106;-2.088;2023-01-30T04:18:42;2.13;;;1.20;;
17079;SDS011;8655;57.106;-2.088;2023-01-30T04:21:08;1.83;;;1.00;;
17079;SDS011;8655;57.106;-2.088;2023-01-30T04:23:34;2.97;;;1.47;;
17079;SDS011;8655;57.106;-2.088;2023-01-30T04:26:00;2.00;;;1.10;;
17079;SDS011;8655;57.106;-2.088;2023-01-30T04:28:25;1.53;;;0.93;;
17079;SDS011;8655;57.106;-2.088;2023-01-30T04:30:52;2.93;;;1.20;;
17079;SDS011;8655;57.106;-2.088;2023-01-30T04:33:18;1.87;;;1.30;;
17079;SDS011;8655;57.106;-2.088;2023-01-30T04:36:17;2.10;;;1.20;;
17079;SDS011;8655;57.106;-2.088;2023-01-30T04:38:36;2.40;;;1.10;;
17079;SDS011;8655;57.106;-2.088;2023-01-30T04:41:03;3.03;;;1.37;;
17079;SDS011;8655;57.106;-2.088;2023-01-30T04:43:29;2.20;;;1.10;;
17079;SDS011;8655;57.106;-2.088;2023-01-30T04:45:56;1.60;;;0.90;;
17079;SDS011;8655;57.106;-2.088;2023-01-30T04:48:22;1.83;;;1.07;;
17079;SDS011;8655;57.106;-2.088;2023-01-30T04:50:50;2.47;;;1.00;;
17079;SDS011;8655;57.106;-2.088;2023-01-30T04:53:18;2.20;;;1.00;;
17079;SDS011;8655;57.106;-2.088;2023-01-30T04:55:44;2.13;;;1.10;;
17079;SDS011;8655;57.106;-2.088;2023-01-30T04:58:10;2.80;;;1.10;;
17079;SDS011;8655;57.106;-2.088;2023-01-30T05:00:36;1.63;;;0.93;;
17079;SDS011;8655;57.106;-2.088;2023-01-30T05:03:02;2.10;;;1.03;;
17079;SDS011;8655;57.106;-2.088;2023-01-30T05:05:28;1.83;;;1.17;;
17079;SDS011;8655;57.106;-2.088;2023-01-30T05:07:54;1.53;;;1.03;;
17079;SDS011;8655;57.106;-2.088;2023-01-30T05:10:19;3.40;;;1.47;;
17079;SDS011;8655;57.106;-2.088;2023-01-30T05:12:45;2.80;;;1.30;;
17079;SDS011;8655;57.106;-2.088;2023-01-30T05:15:12;2.80;;;1.33;;
17079;SDS011;8655;57.106;-2.088;2023-01-30T05:17:38;3.00;;;1.20;;
17079;SDS011;8655;57.106;-2.088;2023-01-30T05:20:05;3.13;;;1.30;;
17079;SDS011;8655;57.106;-2.088;2023-01-30T05:22:32;2.27;;;1.17;;
17079;SDS011;8655;57.106;-2.088;2023-01-30T05:24:58;3.23;;;1.30;;
17079;SDS011;8655;57.106;-2.088;2023-01-30T05:27:24;2.37;;;1.20;;
17079;SDS011;8655;57.106;-2.088;2023-01-30T05:29:49;1.73;;;1.20;;
17079;SDS011;8655;57.106;-2.088;2023-01-30T05:32:16;2.33;;;1.30;;
17079;SDS011;8655;57.106;-2.088;2023-01-30T05:34:42;3.90;;;1.83;;
17079;SDS011;8655;57.106;-2.088;2023-01-30T05:37:09;2.90;;;1.30;;
17079;SDS011;8655;57.106;-2.088;2023-01-30T05:39:36;2.53;;;1.30;;
17079;SDS011;8655;57.106;-2.088;2023-01-30T05:42:02;3.47;;;1.33;;
17079;SDS011;8655;57.106;-2.088;2023-01-30T05:44:28;2.73;;;1.20;;
17079;SDS011;8655;57.106;-2.088;2023-01-30T05:46:54;1.70;;;1.07;;
17079;SDS011;8655;57.106;-2.088;2023-01-30T05:49:20;2.80;;;1.27;;
17079;SDS011;8655;57.106;-2.088;2023-01-30T05:51:46;2.83;;;1.20;;
17079;SDS011;8655;57.106;-2.088;2023-01-30T05:54:11;3.23;;;1.43;;
17079;SDS011;8655;57.106;-2.088;2023-01-30T05:56:37;2.97;;;1.40;;
17079;SDS011;8655;57.106;-2.088;2023-01-30T05:59:03;2.57;;;1.13;;
17079;SDS011;8655;57.106;-2.088;2023-01-30T06:01:29;2.10;;;1.33;;
17079;SDS011;8655;57.106;-2.088;2023-01-30T06:03:54;2.43;;;1.30;;
17079;SDS011;8655;57.106;-2.088;2023-01-30T06:06:21;2.37;;;1.20;;
17079;SDS011;8655;57.106;-2.088;2023-01-30T06:08:51;2.93;;;1.20;;
17079;SDS011;8655;57.106;-2.088;2023-01-30T06:11:17;3.13;;;1.50;;
17079;SDS011;8655;57.106;-2.088;2023-01-30T06:13:43;3.57;;;1.30;;
17079;SDS011;8655;57.106;-2.088;2023-01-30T06:16:10;3.07;;;1.40;;
17079;SDS011;8655;57.106;-2.088;2023-01-30T06:18:37;2.30;;;1.37;;
17079;SDS011;8655;57.106;-2.088;2023-01-30T06:21:03;2.80;;;1.40;;
17079;SDS011;8655;57.106;-2.088;2023-01-30T06:23:30;3.20;;;1.40;;
17079;SDS011;8655;57.106;-2.088;2023-01-30T06:25:56;2.70;;;1.40;;
17079;SDS011;8655;57.106;-2.088;2023-01-30T06:28:22;3.17;;;1.40;;
17079;SDS011;8655;57.106;-2.088;2023-01-30T06:30:48;3.40;;;1.27;;
17079;SDS011;8655;57.106;-2.088;2023-01-30T06:33:15;2.57;;;1.30;;
17079;SDS011;8655;57.106;-2.088;2023-01-30T06:35:42;2.87;;;1.27;;
17079;SDS011;8655;57.106;-2.088;2023-01-30T06:38:08;3.30;;;1.40;;
17079;SDS011;8655;57.106;-2.088;2023-01-30T06:40:35;1.97;;;1.20;;
17079;SDS011;8655;57.106;-2.088;2023-01-30T06:43:02;4.50;;;1.30;;
17079;SDS011;8655;57.106;-2.088;2023-01-30T06:45:28;3.43;;;1.53;;
17079;SDS011;8655;57.106;-2.088;2023-01-30T06:47:54;3.87;;;1.60;;
17079;SDS011;8655;57.106;-2.088;2023-01-30T06:50:21;2.50;;;1.37;;
17079;SDS011;8655;57.106;-2.088;2023-01-30T06:52:48;3.27;;;1.57;;
17079;SDS011;8655;57.106;-2.088;2023-01-30T06:55:16;4.33;;;1.70;;
17079;SDS011;8655;57.106;-2.088;2023-01-30T06:57:43;3.50;;;1.43;;
17079;SDS011;8655;57.106;-2.088;2023-01-30T07:00:11;4.50;;;1.77;;
17079;SDS011;8655;57.106;-2.088;2023-01-30T07:02:41;4.80;;;1.70;;
17079;SDS011;8655;57.106;-2.088;2023-01-30T07:05:07;2.33;;;1.50;;
17079;SDS011;8655;57.106;-2.088;2023-01-30T07:07:34;3.47;;;1.37;;
17079;SDS011;8655;57.106;-2.088;2023-01-30T07:10:00;3.67;;;1.70;;
17079;SDS011;8655;57.106;-2.088;2023-01-30T07:12:26;4.33;;;1.63;;
17079;SDS011;8655;57.106;-2.088;2023-01-30T07:14:52;3.53;;;1.50;;
17079;SDS011;8655;57.106;-2.088;2023-01-30T07:17:18;4.30;;;1.60;;
17079;SDS011;8655;57.106;-2.088;2023-01-30T07:19:44;3.83;;;1.30;;
17079;SDS011;8655;57.106;-2.088;2023-01-30T07:22:10;5.23;;;1.80;;
17079;SDS011;8655;57.106;-2.088;2023-01-30T07:24:36;3.50;;;1.60;;
17079;SDS011;8655;57.106;-2.088;2023-01-30T07:27:05;3.10;;;1.50;;
17079;SDS011;8655;57.106;-2.088;2023-01-30T07:29:33;6.10;;;1.93;;
17079;SDS011;8655;57.106;-2.088;2023-01-30T07:31:59;3.33;;;1.70;;
17079;SDS011;8655;57.106;-2.088;2023-01-30T07:34:25;4.87;;;1.70;;
17079;SDS011;8655;57.106;-2.088;2023-01-30T07:36:50;4.60;;;1.70;;
17079;SDS011;8655;57.106;-2.088;2023-01-30T07:39:16;4.40;;;1.80;;
17079;SDS011;8655;57.106;-2.088;2023-01-30T07:41:42;3.93;;;1.40;;
17079;SDS011;8655;57.106;-2.088;2023-01-30T07:44:07;4.33;;;1.80;;
17079;SDS011;8655;57.106;-2.088;2023-01-30T07:46:33;3.63;;;1.97;;
17079;SDS011;8655;57.106;-2.088;2023-01-30T07:49:00;2.77;;;1.40;;
17079;SDS011;8655;57.106;-2.088;2023-01-30T07:51:26;3.93;;;1.63;;
17079;SDS011;8655;57.106;-2.088;2023-01-30T07:53:52;4.87;;;1.70;;
17079;SDS011;8655;57.106;-2.088;2023-01-30T07:56:18;4.20;;;1.63;;
17079;SDS011;8655;57.106;-2.088;2023-01-30T07:58:46;3.73;;;1.73;;
17079;SDS011;8655;57.106;-2.088;2023-01-30T08:01:11;3.20;;;1.43;;
17079;SDS011;8655;57.106;-2.088;2023-01-30T08:03:37;5.10;;;1.80;;
17079;SDS011;8655;57.106;-2.088;2023-01-30T08:06:03;4.33;;;1.83;;
17079;SDS011;8655;57.106;-2.088;2023-01-30T08:08:29;2.97;;;1.33;;
17079;SDS011;8655;57.106;-2.088;2023-01-30T08:10:54;6.03;;;1.80;;
17079;SDS011;8655;57.106;-2.088;2023-01-30T08:13:20;3.80;;;1.60;;
17079;SDS011;8655;57.106;-2.088;2023-01-30T08:15:46;4.20;;;1.87;;
17079;SDS011;8655;57.106;-2.088;2023-01-30T08:18:11;4.33;;;2.10;;
17079;SDS011;8655;57.106;-2.088;2023-01-30T08:20:37;2.93;;;1.30;;
17079;SDS011;8655;57.106;-2.088;2023-01-30T08:23:03;4.83;;;1.73;;
17079;SDS011;8655;57.106;-2.088;2023-01-30T08:25:29;3.80;;;1.50;;
17079;SDS011;8655;57.106;-2.088;2023-01-30T08:27:55;4.03;;;1.50;;
17079;SDS011;8655;57.106;-2.088;2023-01-30T08:30:22;3.13;;;1.40;;
17079;SDS011;8655;57.106;-2.088;2023-01-30T08:32:48;3.50;;;1.47;;
17079;SDS011;8655;57.106;-2.088;2023-01-30T08:35:13;5.23;;;1.73;;
17079;SDS011;8655;57.106;-2.088;2023-01-30T08:37:39;4.67;;;1.47;;
17079;SDS011;8655;57.106;-2.088;2023-01-30T08:40:06;2.90;;;1.57;;
17079;SDS011;8655;57.106;-2.088;2023-01-30T08:42:32;3.37;;;1.40;;
17079;SDS011;8655;57.106;-2.088;2023-01-30T08:44:58;3.57;;;1.60;;
17079;SDS011;8655;57.106;-2.088;2023-01-30T08:47:24;3.63;;;1.50;;
17079;SDS011;8655;57.106;-2.088;2023-01-30T08:49:49;4.70;;;1.63;;
17079;SDS011;8655;57.106;-2.088;2023-01-30T08:52:16;3.10;;;1.60;;
17079;SDS011;8655;57.106;-2.088;2023-01-30T08:54:43;3.40;;;1.70;;
17079;SDS011;8655;57.106;-2.088;2023-01-30T08:57:09;4.87;;;1.63;;
17079;SDS011;8655;57.106;-2.088;2023-01-30T08:59:35;3.90;;;1.60;;
17079;SDS011;8655;57.106;-2.088;2023-01-30T09:02:00;4.17;;;1.53;;
17079;SDS011;8655;57.106;-2.088;2023-01-30T09:04:28;4.27;;;1.83;;
17079;SDS011;8655;57.106;-2.088;2023-01-30T09:06:54;3.30;;;1.40;;
17079;SDS011;8655;57.106;-2.088;2023-01-30T09:09:19;3.70;;;1.83;;
17079;SDS011;8655;57.106;-2.088;2023-01-30T09:11:45;3.70;;;1.33;;
17079;SDS011;8655;57.106;-2.088;2023-01-30T09:14:14;2.73;;;1.30;;
17079;SDS011;8655;57.106;-2.088;2023-01-30T09:16:43;3.40;;;1.57;;
17079;SDS011;8655;57.106;-2.088;2023-01-30T09:19:19;3.93;;;1.60;;
17079;SDS011;8655;57.106;-2.088;2023-01-30T09:21:49;2.77;;;1.40;;
17079;SDS011;8655;57.106;-2.088;2023-01-30T09:24:15;3.43;;;1.50;;
17079;SDS011;8655;57.106;-2.088;2023-01-30T09:26:41;3.67;;;1.43;;
17079;SDS011;8655;57.106;-2.088;2023-01-30T09:29:11;3.23;;;1.30;;
17079;SDS011;8655;57.106;-2.088;2023-01-30T09:31:38;4.23;;;1.50;;
17079;SDS011;8655;57.106;-2.088;2023-01-30T09:34:04;3.23;;;1.57;;
17079;SDS011;8655;57.106;-2.088;2023-01-30T09:36:30;2.93;;;1.40;;
17079;SDS011;8655;57.106;-2.088;2023-01-30T09:38:56;3.23;;;1.50;;
17079;SDS011;8655;57.106;-2.088;2023-01-30T09:47:11;3.50;;;1.40;;
17079;SDS011;8655;57.106;-2.088;2023-01-30T09:49:48;3.17;;;1.43;;
17079;SDS011;8655;57.106;-2.088;2023-01-30T09:52:33;3.30;;;1.70;;
17079;SDS011;8655;57.106;-2.088;2023-01-30T09:55:18;3.37;;;1.50;;
17079;SDS011;8655;57.106;-2.088;2023-01-30T09:57:47;3.53;;;1.70;;
17079;SDS011;8655;57.106;-2.088;2023-01-30T10:03:18;2.83;;;1.50;;
17079;SDS011;8655;57.106;-2.088;2023-01-30T10:05:53;4.00;;;1.87;;
17079;SDS011;8655;57.106;-2.088;2023-01-30T10:11:22;2.73;;;1.50;;
17079;SDS011;8655;57.106;-2.088;2023-01-30T10:25:18;3.97;;;1.83;;
17079;SDS011;8655;57.106;-2.088;2023-01-30T10:28:05;2.83;;;1.40;;
17079;SDS011;8655;57.106;-2.088;2023-01-30T10:30:36;4.07;;;1.73;;
17079;SDS011;8655;57.106;-2.088;2023-01-30T10:33:47;3.40;;;1.40;;
17079;SDS011;8655;57.106;-2.088;2023-01-30T10:36:03;3.70;;;1.67;;
17079;SDS011;8655;57.106;-2.088;2023-01-30T10:38:37;2.47;;;1.50;;
17079;SDS011;8655;57.106;-2.088;2023-01-30T10:44:02;2.77;;;1.47;;
17079;SDS011;8655;57.106;-2.088;2023-01-30T10:55:26;4.20;;;1.70;;
17079;SDS011;8655;57.106;-2.088;2023-01-30T11:00:49;4.07;;;1.40;;
17079;SDS011;8655;57.106;-2.088;2023-01-30T11:03:36;2.47;;;1.27;;
17079;SDS011;8655;57.106;-2.088;2023-01-30T11:06:11;3.07;;;1.37;;
17079;SDS011;8655;57.106;-2.088;2023-01-30T11:08:43;2.73;;;1.40;;
17079;SDS011;8655;57.106;-2.088;2023-01-30T11:14:15;2.60;;;1.30;;
17079;SDS011;8655;57.106;-2.088;2023-01-30T11:19:18;3.33;;;1.60;;
17079;SDS011;8655;57.106;-2.088;2023-01-30T11:21:54;3.37;;;1.40;;
17079;SDS011;8655;57.106;-2.088;2023-01-30T11:24:29;4.80;;;1.53;;
17079;SDS011;8655;57.106;-2.088;2023-01-30T11:27:10;2.63;;;1.60;;
17079;SDS011;8655;57.106;-2.088;2023-01-30T11:29:40;3.53;;;1.40;;
17079;SDS011;8655;57.106;-2.088;2023-01-30T11:32:11;2.63;;;1.40;;
17079;SDS011;8655;57.106;-2.088;2023-01-30T11:34:43;3.30;;;1.50;;
17079;SDS011;8655;57.106;-2.088;2023-01-30T11:37:38;3.30;;;1.50;;
17079;SDS011;8655;57.106;-2.088;2023-01-30T11:40:09;2.40;;;1.33;;
17079;SDS011;8655;57.106;-2.088;2023-01-30T11:42:45;3.80;;;1.53;;
17079;SDS011;8655;57.106;-2.088;2023-01-30T11:45:13;3.67;;;1.47;;
17079;SDS011;8655;57.106;-2.088;2023-01-30T11:47:45;3.07;;;1.30;;
17079;SDS011;8655;57.106;-2.088;2023-01-30T11:50:15;3.43;;;1.50;;
17079;SDS011;8655;57.106;-2.088;2023-01-30T11:52:42;3.93;;;1.30;;
17079;SDS011;8655;57.106;-2.088;2023-01-30T11:55:14;2.13;;;1.30;;
17079;SDS011;8655;57.106;-2.088;2023-01-30T11:57:46;2.50;;;1.40;;
17079;SDS011;8655;57.106;-2.088;2023-01-30T12:00:18;3.07;;;1.40;;
17079;SDS011;8655;57.106;-2.088;2023-01-30T12:02:48;3.87;;;1.70;;
17079;SDS011;8655;57.106;-2.088;2023-01-30T12:07:46;3.17;;;1.30;;
17079;SDS011;8655;57.106;-2.088;2023-01-30T12:10:29;3.13;;;1.50;;
17079;SDS011;8655;57.106;-2.088;2023-01-30T12:12:59;2.70;;;1.37;;
17079;SDS011;8655;57.106;-2.088;2023-01-30T12:15:30;2.63;;;1.20;;
17079;SDS011;8655;57.106;-2.088;2023-01-30T12:20:57;2.83;;;1.50;;
17079;SDS011;8655;57.106;-2.088;2023-01-30T12:23:32;2.93;;;1.37;;
17079;SDS011;8655;57.106;-2.088;2023-01-30T12:26:32;2.87;;;1.20;;
17079;SDS011;8655;57.106;-2.088;2023-01-30T12:32:10;3.43;;;1.50;;
17079;SDS011;8655;57.106;-2.088;2023-01-30T12:34:43;4.03;;;1.50;;
17079;SDS011;8655;57.106;-2.088;2023-01-30T12:45:31;2.93;;;1.47;;
17079;SDS011;8655;57.106;-2.088;2023-01-30T12:54:02;2.27;;;1.47;;
17079;SDS011;8655;57.106;-2.088;2023-01-30T12:56:41;4.40;;;1.70;;
17079;SDS011;8655;57.106;-2.088;2023-01-30T13:07:50;4.00;;;1.63;;
17079;SDS011;8655;57.106;-2.088;2023-01-30T13:18:36;2.33;;;1.10;;
17079;SDS011;8655;57.106;-2.088;2023-01-30T13:21:19;2.70;;;1.30;;
17079;SDS011;8655;57.106;-2.088;2023-01-30T13:26:41;3.20;;;1.40;;
17079;SDS011;8655;57.106;-2.088;2023-01-30T13:29:13;5.20;;;1.33;;
17079;SDS011;8655;57.106;-2.088;2023-01-30T13:31:57;4.60;;;1.73;;
17079;SDS011;8655;57.106;-2.088;2023-01-30T13:34:39;3.97;;;1.50;;
17079;SDS011;8655;57.106;-2.088;2023-01-30T13:37:12;2.50;;;1.07;;
17079;SDS011;8655;57.106;-2.088;2023-01-30T13:42:28;2.63;;;1.33;;
17079;SDS011;8655;57.106;-2.088;2023-01-30T13:45:04;1.53;;;1.17;;
17079;SDS011;8655;57.106;-2.088;2023-01-30T13:50:40;2.87;;;1.50;;
17079;SDS011;8655;57.106;-2.088;2023-01-30T14:01:15;3.00;;;1.30;;
17079;SDS011;8655;57.106;-2.088;2023-01-30T14:03:41;2.23;;;1.17;;
17079;SDS011;8655;57.106;-2.088;2023-01-30T14:08:55;3.23;;;1.27;;
17079;SDS011;8655;57.106;-2.088;2023-01-30T14:11:24;2.37;;;1.30;;
17079;SDS011;8655;57.106;-2.088;2023-01-30T14:14:03;1.90;;;1.10;;
17079;SDS011;8655;57.106;-2.088;2023-01-30T14:16:55;2.73;;;1.50;;
17079;SDS011;8655;57.106;-2.088;2023-01-30T14:19:32;2.50;;;1.37;;
17079;SDS011;8655;57.106;-2.088;2023-01-30T14:22:03;2.23;;;1.10;;
17079;SDS011;8655;57.106;-2.088;2023-01-30T14:24:43;3.63;;;1.30;;
17079;SDS011;8655;57.106;-2.088;2023-01-30T14:27:23;3.23;;;1.43;;
17079;SDS011;8655;57.106;-2.088;2023-01-30T14:29:52;1.73;;;1.20;;
17079;SDS011;8655;57.106;-2.088;2023-01-30T14:37:44;2.13;;;1.50;;
17079;SDS011;8655;57.106;-2.088;2023-01-30T14:43:06;2.53;;;1.33;;
17079;SDS011;8655;57.106;-2.088;2023-01-30T14:45:49;2.20;;;1.07;;
17079;SDS011;8655;57.106;-2.088;2023-01-30T14:56:17;2.67;;;1.23;;
17079;SDS011;8655;57.106;-2.088;2023-01-30T14:58:58;2.20;;;1.27;;
17079;SDS011;8655;57.106;-2.088;2023-01-30T15:01:27;3.07;;;1.40;;
17079;SDS011;8655;57.106;-2.088;2023-01-30T15:04:25;2.23;;;1.27;;
17079;SDS011;8655;57.106;-2.088;2023-01-30T15:06:54;1.93;;;1.07;;
17079;SDS011;8655;57.106;-2.088;2023-01-30T15:09:21;2.23;;;1.17;;
17079;SDS011;8655;57.106;-2.088;2023-01-30T15:12:14;2.97;;;1.33;;
17079;SDS011;8655;57.106;-2.088;2023-01-30T15:17:47;3.17;;;1.53;;
17079;SDS011;8655;57.106;-2.088;2023-01-30T15:31:23;2.23;;;1.20;;
17079;SDS011;8655;57.106;-2.088;2023-01-30T15:33:50;2.53;;;1.40;;
17079;SDS011;8655;57.106;-2.088;2023-01-30T15:36:25;2.33;;;1.20;;
17079;SDS011;8655;57.106;-2.088;2023-01-30T15:41:42;1.83;;;1.10;;
17079;SDS011;8655;57.106;-2.088;2023-01-30T15:44:20;2.57;;;1.20;;
17079;SDS011;8655;57.106;-2.088;2023-01-30T15:55:02;2.10;;;1.40;;
17079;SDS011;8655;57.106;-2.088;2023-01-30T15:57:29;3.90;;;1.40;;
17079;SDS011;8655;57.106;-2.088;2023-01-30T15:59:59;3.00;;;1.20;;
17079;SDS011;8655;57.106;-2.088;2023-01-30T16:02:30;1.77;;;1.10;;
17079;SDS011;8655;57.106;-2.088;2023-01-30T16:05:12;2.57;;;1.27;;
17079;SDS011;8655;57.106;-2.088;2023-01-30T16:07:40;2.47;;;1.20;;
17079;SDS011;8655;57.106;-2.088;2023-01-30T16:10:10;2.50;;;1.20;;
17079;SDS011;8655;57.106;-2.088;2023-01-30T16:12:38;1.63;;;1.13;;
17079;SDS011;8655;57.106;-2.088;2023-01-30T16:15:05;2.00;;;1.20;;
17079;SDS011;8655;57.106;-2.088;2023-01-30T16:17:39;3.17;;;1.40;;
17079;SDS011;8655;57.106;-2.088;2023-01-30T16:20:12;2.97;;;1.20;;
17079;SDS011;8655;57.106;-2.088;2023-01-30T16:22:41;1.90;;;1.03;;
17079;SDS011;8655;57.106;-2.088;2023-01-30T16:25:15;1.47;;;1.07;;
17079;SDS011;8655;57.106;-2.088;2023-01-30T16:27:46;2.80;;;1.10;;
17079;SDS011;8655;57.106;-2.088;2023-01-30T16:30:17;1.63;;;1.17;;
17079;SDS011;8655;57.106;-2.088;2023-01-30T16:32:45;2.67;;;1.17;;
17079;SDS011;8655;57.106;-2.088;2023-01-30T16:35:15;2.20;;;1.23;;
17079;SDS011;8655;57.106;-2.088;2023-01-30T16:37:47;2.53;;;1.30;;
17079;SDS011;8655;57.106;-2.088;2023-01-30T16:40:14;1.93;;;1.20;;
17079;SDS011;8655;57.106;-2.088;2023-01-30T16:43:28;2.10;;;1.30;;
17079;SDS011;8655;57.106;-2.088;2023-01-30T16:49:08;3.10;;;1.23;;
17079;SDS011;8655;57.106;-2.088;2023-01-30T16:52:01;3.20;;;1.33;;
17079;SDS011;8655;57.106;-2.088;2023-01-30T16:54:46;2.60;;;1.33;;
17079;SDS011;8655;57.106;-2.088;2023-01-30T16:57:21;2.37;;;1.17;;
17079;SDS011;8655;57.106;-2.088;2023-01-30T16:59:59;1.80;;;1.00;;
17079;SDS011;8655;57.106;-2.088;2023-01-30T17:02:34;2.43;;;1.00;;
17079;SDS011;8655;57.106;-2.088;2023-01-30T17:05:36;1.50;;;1.10;;
17079;SDS011;8655;57.106;-2.088;2023-01-30T17:08:00;1.47;;;1.00;;
17079;SDS011;8655;57.106;-2.088;2023-01-30T17:12:52;2.07;;;1.10;;
17079;SDS011;8655;57.106;-2.088;2023-01-30T17:17:44;1.70;;;1.07;;
17079;SDS011;8655;57.106;-2.088;2023-01-30T17:20:11;1.47;;;1.00;;
17079;SDS011;8655;57.106;-2.088;2023-01-30T17:22:39;2.00;;;1.00;;
17079;SDS011;8655;57.106;-2.088;2023-01-30T17:27:56;2.50;;;1.17;;
17079;SDS011;8655;57.106;-2.088;2023-01-30T17:30:22;3.13;;;1.40;;
17079;SDS011;8655;57.106;-2.088;2023-01-30T17:32:48;1.33;;;1.00;;
17079;SDS011;8655;57.106;-2.088;2023-01-30T17:35:14;2.77;;;1.20;;
17079;SDS011;8655;57.106;-2.088;2023-01-30T17:37:41;1.43;;;1.00;;
17079;SDS011;8655;57.106;-2.088;2023-01-30T17:40:13;1.83;;;1.07;;
17079;SDS011;8655;57.106;-2.088;2023-01-30T17:42:41;2.00;;;1.10;;
17079;SDS011;8655;57.106;-2.088;2023-01-30T17:45:07;1.70;;;1.20;;
17079;SDS011;8655;57.106;-2.088;2023-01-30T17:47:34;1.57;;;1.17;;
17079;SDS011;8655;57.106;-2.088;2023-01-30T17:50:00;1.30;;;1.00;;
17079;SDS011;8655;57.106;-2.088;2023-01-30T17:52:26;1.40;;;0.90;;
17079;SDS011;8655;57.106;-2.088;2023-01-30T17:54:51;1.37;;;1.00;;
17079;SDS011;8655;57.106;-2.088;2023-01-30T17:57:17;2.53;;;1.13;;
17079;SDS011;8655;57.106;-2.088;2023-01-30T17:59:44;1.60;;;1.27;;
17079;SDS011;8655;57.106;-2.088;2023-01-30T18:02:11;1.43;;;1.00;;
17079;SDS011;8655;57.106;-2.088;2023-01-30T18:04:36;1.83;;;1.10;;
17079;SDS011;8655;57.106;-2.088;2023-01-30T18:07:04;2.13;;;1.20;;
17079;SDS011;8655;57.106;-2.088;2023-01-30T18:09:35;1.10;;;0.90;;
17079;SDS011;8655;57.106;-2.088;2023-01-30T18:12:02;1.53;;;0.97;;
17079;SDS011;8655;57.106;-2.088;2023-01-30T18:14:28;2.20;;;1.20;;